Time;durP1;ratioP1;P1;durP2;ratioP2;P2;SDS_P1;SDS_P2;PMS_P1;PMS_P2;Temp;Humidity;BMP_temperature;BMP_pressure;BME280_temperature;BME280_humidity;BME280_pressure;Samples;Min_cycle;Max_cycle;Signal;HPM_P1;HPM_P2
2021/06/14 00:02:10;;;;;;;4.17;3.27;;;14.80;64.60;;;;;;5072898;28;20617;-85
2021/06/14 00:04:38;;;;;;;3.20;3.00;;;14.80;64.80;;;;;;5074866;28;20613;-85
2021/06/14 00:07:05;;;;;;;4.43;3.93;;;14.90;64.10;;;;;;5074985;28;20671;-84
2021/06/14 00:09:32;;;;;;;4.10;3.17;;;14.90;66.00;;;;;;5074555;28;20637;-84
2021/06/14 00:11:59;;;;;;;5.97;3.83;;;14.80;66.00;;;;;;5074511;28;20623;-85
2021/06/14 00:14:26;;;;;;;8.23;3.63;;;14.80;65.90;;;;;;5074366;28;20693;-84
2021/06/14 00:16:55;;;;;;;4.20;3.30;;;14.80;66.80;;;;;;5074286;28;20629;-84
2021/06/14 00:19:22;;;;;;;5.00;3.30;;;14.80;66.20;;;;;;5074135;28;20614;-85
2021/06/14 00:21:49;;;;;;;3.50;3.20;;;14.80;66.40;;;;;;5074663;28;20628;-85
2021/06/14 00:24:16;;;;;;;3.80;3.07;;;14.70;66.70;;;;;;5074160;28;21018;-85
2021/06/14 00:26:43;;;;;;;4.20;3.73;;;14.60;67.50;;;;;;5074182;28;20975;-84
2021/06/14 00:29:10;;;;;;;3.63;3.33;;;14.40;68.20;;;;;;5073931;28;20613;-85
2021/06/14 00:31:37;;;;;;;3.60;3.30;;;14.30;70.50;;;;;;5074299;28;20942;-85
2021/06/14 00:34:05;;;;;;;3.67;3.37;;;14.30;73.10;;;;;;5074023;28;21013;-84
2021/06/14 00:36:32;;;;;;;3.80;3.40;;;14.20;73.70;;;;;;5073724;28;20621;-84
2021/06/14 00:38:59;;;;;;;4.43;3.20;;;14.10;75.20;;;;;;5074312;28;21119;-85
2021/06/14 00:41:26;;;;;;;3.50;3.20;;;14.00;77.00;;;;;;5074258;28;20628;-85
2021/06/14 00:43:53;;;;;;;3.90;3.50;;;13.90;77.60;;;;;;5073986;28;20618;-85
2021/06/14 00:46:20;;;;;;;4.83;3.50;;;13.90;78.00;;;;;;5074714;28;20665;-85
2021/06/14 00:48:47;;;;;;;3.73;3.43;;;13.90;77.80;;;;;;5074131;28;20682;-85
2021/06/14 00:51:15;;;;;;;4.37;3.23;;;14.00;76.00;;;;;;5074231;28;20611;-85
2021/06/14 00:53:44;;;;;;;4.10;3.70;;;14.10;76.60;;;;;;5073864;28;21196;-85
2021/06/14 00:56:14;;;;;;;3.50;3.07;;;13.90;76.80;;;;;;5073802;28;21075;-85
2021/06/14 00:58:42;;;;;;;4.20;3.10;;;13.80;76.00;;;;;;5073687;28;20644;-85
2021/06/14 01:01:10;;;;;;;4.30;3.73;;;13.90;75.90;;;;;;5074052;28;20674;-85
2021/06/14 01:03:37;;;;;;;6.30;3.90;;;13.90;76.00;;;;;;5073598;28;20601;-85
2021/06/14 01:06:08;;;;;;;4.57;4.17;;;13.90;77.10;;;;;;5073561;28;20740;-84
2021/06/14 01:08:40;;;;;;;3.67;3.37;;;13.70;77.00;;;;;;5074088;28;20965;-85
2021/06/14 01:11:13;;;;;;;4.20;3.50;;;13.60;77.70;;;;;;5073762;28;20613;-85
2021/06/14 01:13:50;;;;;;;4.07;3.63;;;13.50;77.10;;;;;;5073093;28;20613;-85
2021/06/14 01:16:21;;;;;;;4.13;3.47;;;13.50;77.00;;;;;;5073280;28;21271;-85
2021/06/14 01:18:56;;;;;;;4.03;3.70;;;13.50;77.40;;;;;;5073665;28;20704;-85
2021/06/14 01:21:28;;;;;;;4.20;3.77;;;13.50;76.50;;;;;;5072992;28;20655;-84
2021/06/14 01:24:29;;;;;;;6.13;4.57;;;13.70;76.80;;;;;;5073192;28;20612;-84
2021/06/14 01:27:03;;;;;;;3.80;3.50;;;13.60;75.10;;;;;;5052473;28;20629;-84
2021/06/14 01:29:35;;;;;;;4.47;4.00;;;13.60;76.70;;;;;;5052959;28;20997;-84
2021/06/14 01:32:07;;;;;;;5.03;4.30;;;13.60;76.50;;;;;;5052976;28;21388;-84
2021/06/14 01:34:38;;;;;;;5.07;4.63;;;13.50;76.90;;;;;;5053043;28;20636;-85
2021/06/14 01:37:08;;;;;;;5.10;4.60;;;13.50;75.70;;;;;;5052789;28;20641;-85
2021/06/14 01:39:39;;;;;;;5.17;4.27;;;13.50;75.90;;;;;;5052777;28;20721;-84
2021/06/14 01:42:07;;;;;;;4.47;3.83;;;13.40;76.70;;;;;;5053003;28;20656;-84
2021/06/14 01:44:38;;;;;;;4.60;4.10;;;13.40;77.00;;;;;;5052892;28;20611;-84
2021/06/14 01:47:07;;;;;;;4.47;4.17;;;13.30;77.60;;;;;;5057744;28;20629;-84
2021/06/14 01:49:37;;;;;;;6.17;4.10;;;13.30;77.60;;;;;;5067238;28;20624;-84
2021/06/14 01:52:07;;;;;;;6.93;4.80;;;13.20;77.80;;;;;;5069798;28;20706;-84
2021/06/14 01:54:37;;;;;;;4.23;3.93;;;13.30;77.40;;;;;;5072620;28;20656;-85
2021/06/14 01:57:07;;;;;;;4.00;3.27;;;13.20;77.50;;;;;;5072456;28;21205;-84
2021/06/14 01:59:38;;;;;;;4.97;4.00;;;13.20;76.50;;;;;;5072605;28;20618;-84
2021/06/14 02:02:08;;;;;;;4.83;4.40;;;13.20;77.50;;;;;;5072719;28;20613;-84
2021/06/14 02:04:38;;;;;;;4.80;4.10;;;13.20;76.40;;;;;;5072353;28;20970;-84
2021/06/14 02:07:08;;;;;;;4.83;4.43;;;13.20;77.50;;;;;;5072237;28;20622;-84
2021/06/14 02:09:36;;;;;;;5.40;4.90;;;13.10;77.70;;;;;;5072217;28;20724;-84
2021/06/14 02:12:08;;;;;;;6.90;4.50;;;13.10;78.90;;;;;;5072132;28;20606;-84
2021/06/14 02:14:40;;;;;;;4.90;4.17;;;13.00;79.20;;;;;;5072097;28;20732;-84
2021/06/14 02:17:11;;;;;;;4.60;4.20;;;13.00;79.40;;;;;;5072326;28;20624;-84
2021/06/14 02:19:41;;;;;;;5.40;4.90;;;13.10;79.40;;;;;;5071794;28;20618;-84
2021/06/14 02:22:10;;;;;;;5.90;4.70;;;12.90;79.60;;;;;;5071848;28;20671;-84
2021/06/14 02:24:39;;;;;;;7.00;4.83;;;12.70;80.00;;;;;;5070175;28;20679;-84
2021/06/14 02:27:09;;;;;;;8.03;5.63;;;12.60;81.20;;;;;;5051470;28;21209;-84
2021/06/14 02:29:38;;;;;;;6.03;4.47;;;12.60;81.80;;;;;;5050709;28;20701;-84
2021/06/14 02:32:06;;;;;;;5.50;4.90;;;12.60;82.60;;;;;;5051526;28;20611;-84
2021/06/14 02:34:33;;;;;;;11.50;5.93;;;12.60;82.50;;;;;;5050997;28;21026;-83
2021/06/14 02:37:01;;;;;;;10.83;4.80;;;12.50;82.90;;;;;;5051517;28;20622;-84
2021/06/14 02:39:32;;;;;;;6.20;5.20;;;12.50;83.50;;;;;;5051509;28;21162;-84
2021/06/14 02:42:00;;;;;;;4.77;4.37;;;12.60;83.70;;;;;;5051020;28;20609;-84
2021/06/14 02:44:29;;;;;;;5.33;4.47;;;12.70;83.20;;;;;;5050943;28;20598;-84
2021/06/14 02:47:02;;;;;;;5.77;4.80;;;12.70;82.40;;;;;;5051500;28;20607;-83
2021/06/14 02:49:30;;;;;;;6.07;4.50;;;12.70;83.40;;;;;;5051344;28;20687;-84
2021/06/14 02:51:59;;;;;;;5.23;4.80;;;12.70;82.80;;;;;;5051654;28;20603;-84
2021/06/14 02:54:31;;;;;;;6.00;4.60;;;12.80;82.20;;;;;;5050550;28;20626;-84
2021/06/14 02:57:02;;;;;;;4.87;4.47;;;12.70;82.70;;;;;;5051437;28;20618;-84
2021/06/14 02:59:31;;;;;;;4.60;4.20;;;12.70;84.30;;;;;;5055773;28;20617;-84
2021/06/14 03:02:00;;;;;;;5.00;4.43;;;12.70;84.20;;;;;;5071540;28;21060;-85
2021/06/14 03:04:28;;;;;;;7.97;4.33;;;12.60;84.30;;;;;;5070647;28;20609;-84
2021/06/14 03:06:56;;;;;;;5.40;4.90;;;12.40;85.70;;;;;;5071198;28;20641;-84
2021/06/14 03:09:23;;;;;;;5.03;4.53;;;12.50;84.70;;;;;;5071038;28;20602;-83
2021/06/14 03:11:52;;;;;;;5.70;5.10;;;12.60;84.50;;;;;;5070481;28;20617;-83
2021/06/14 03:14:22;;;;;;;5.67;5.07;;;12.50;86.10;;;;;;5070909;28;20616;-84
2021/06/14 03:16:50;;;;;;;5.40;5.00;;;12.50;83.90;;;;;;5070762;28;21000;-84
2021/06/14 03:19:21;;;;;;;5.90;5.00;;;12.50;83.30;;;;;;5070939;28;20601;-84
2021/06/14 03:21:49;;;;;;;4.97;4.47;;;12.50;84.10;;;;;;5070140;28;21241;-83
2021/06/14 03:24:16;;;;;;;5.80;5.30;;;12.50;85.70;;;;;;5070771;28;20666;-84
2021/06/14 03:26:46;;;;;;;5.00;4.60;;;12.50;85.80;;;;;;5070580;28;20634;-84
2021/06/14 03:29:20;;;;;;;5.30;4.50;;;12.50;86.30;;;;;;5070521;28;20928;-84
2021/06/14 03:31:53;;;;;;;7.60;5.30;;;12.50;84.50;;;;;;5070628;28;20653;-84
2021/06/14 03:34:26;;;;;;;5.50;5.00;;;12.60;84.90;;;;;;5070040;28;20632;-84
2021/06/14 03:36:54;;;;;;;6.80;5.47;;;12.50;83.40;;;;;;5072252;28;20656;-84
2021/06/14 03:39:22;;;;;;;5.53;4.93;;;12.50;84.60;;;;;;5074907;28;20669;-83
2021/06/14 03:41:50;;;;;;;6.40;5.57;;;12.50;84.90;;;;;;5074812;28;20696;-84
2021/06/14 03:44:19;;;;;;;5.83;5.20;;;12.50;86.30;;;;;;5074662;28;20621;-84
2021/06/14 03:46:46;;;;;;;5.93;4.77;;;12.50;86.30;;;;;;5074674;28;21009;-84
2021/06/14 03:49:13;;;;;;;5.60;5.10;;;12.50;87.60;;;;;;5074417;28;20657;-83
2021/06/14 03:51:42;;;;;;;9.93;5.80;;;12.50;88.70;;;;;;5074697;28;21107;-83
2021/06/14 03:54:09;;;;;;;4.97;4.40;;;12.20;89.90;;;;;;5074741;28;20613;-83
2021/06/14 03:56:37;;;;;;;6.20;5.60;;;12.20;90.20;;;;;;5073862;28;21053;-83
2021/06/14 03:59:04;;;;;;;5.07;4.33;;;12.20;90.60;;;;;;5074389;28;20648;-83
2021/06/14 04:01:31;;;;;;;6.30;5.70;;;12.20;90.80;;;;;;5074546;28;20653;-83
2021/06/14 04:06:53;;;;;;;6.27;5.57;;;12.30;91.00;;;;;;5165710;27;20296;-83
2021/06/14 04:09:20;;;;;;;7.63;5.10;;;12.40;91.10;;;;;;5149597;27;20725;-83
2021/06/14 04:11:47;;;;;;;5.10;4.60;;;12.60;90.60;;;;;;5149646;27;21157;-83
2021/06/14 04:14:15;;;;;;;6.80;6.10;;;12.70;90.30;;;;;;5144374;27;20741;-83
2021/06/14 04:16:42;;;;;;;5.70;5.13;;;12.80;89.20;;;;;;5149152;27;20606;-83
2021/06/14 04:19:09;;;;;;;6.70;6.00;;;12.90;89.40;;;;;;5149665;27;21016;-83
2021/06/14 04:21:36;;;;;;;5.70;5.10;;;13.00;89.80;;;;;;5148989;27;20622;-83
2021/06/14 04:24:06;;;;;;;6.13;5.33;;;13.10;89.10;;;;;;5149474;27;20671;-83
2021/06/14 04:26:33;;;;;;;5.80;5.20;;;13.10;89.80;;;;;;5148886;27;20652;-83
2021/06/14 04:29:00;;;;;;;4.60;4.20;;;13.10;89.90;;;;;;5147834;27;20644;-83
2021/06/14 04:31:27;;;;;;;5.70;5.20;;;13.10;90.10;;;;;;5143381;27;20705;-83
2021/06/14 04:33:54;;;;;;;6.87;4.07;;;13.20;86.40;;;;;;5148822;27;21181;-83
2021/06/14 04:36:21;;;;;;;5.37;4.70;;;13.50;84.80;;;;;;5148782;27;20667;-83
2021/06/14 04:38:48;;;;;;;5.77;4.10;;;13.60;82.20;;;;;;5148982;27;20623;-82
2021/06/14 04:41:16;;;;;;;4.67;3.80;;;13.80;80.60;;;;;;5149176;27;21010;-82
2021/06/14 04:43:43;;;;;;;4.50;4.10;;;14.00;79.70;;;;;;5149098;27;20713;-83
2021/06/14 04:46:10;;;;;;;5.60;5.00;;;14.10;78.60;;;;;;5148710;27;20658;-83
2021/06/14 04:48:37;;;;;;;4.90;3.97;;;14.20;78.00;;;;;;5146834;27;20655;-83
2021/06/14 04:51:04;;;;;;;6.40;4.67;;;14.30;77.80;;;;;;5145198;27;20604;-83
2021/06/14 04:53:31;;;;;;;6.87;4.00;;;14.40;77.50;;;;;;5148804;27;20629;-83
2021/06/14 04:55:58;;;;;;;4.63;4.20;;;14.60;77.00;;;;;;5147560;27;20694;-84
2021/06/14 04:58:26;;;;;;;6.10;4.40;;;14.60;76.60;;;;;;5148497;27;20637;-86
2021/06/14 05:00:53;;;;;;;7.27;4.00;;;14.70;76.00;;;;;;5148347;27;20629;-84
2021/06/14 05:03:20;;;;;;;6.10;4.00;;;14.80;76.00;;;;;;5148305;27;21093;-83
2021/06/14 05:05:47;;;;;;;7.20;4.70;;;14.90;75.20;;;;;;5147743;27;20717;-83
2021/06/14 05:08:18;;;;;;;5.40;4.53;;;15.00;74.70;;;;;;5147158;27;20673;-84
2021/06/14 05:10:45;;;;;;;5.53;4.13;;;15.10;74.40;;;;;;5148090;27;20930;-83
2021/06/14 05:13:12;;;;;;;5.17;4.00;;;15.10;73.90;;;;;;5142319;27;20757;-83
2021/06/14 05:15:40;;;;;;;7.03;4.80;;;15.10;74.20;;;;;;5142941;27;20720;-83
2021/06/14 05:18:07;;;;;;;6.47;4.63;;;15.20;74.60;;;;;;5133559;27;20618;-83
2021/06/14 05:20:34;;;;;;;4.80;3.53;;;15.30;74.70;;;;;;5131797;27;20654;-83
2021/06/14 05:23:02;;;;;;;4.63;3.90;;;15.50;74.50;;;;;;5129331;27;20718;-83
2021/06/14 05:25:29;;;;;;;4.23;3.80;;;15.60;73.90;;;;;;5131232;27;20673;-83
2021/06/14 05:27:56;;;;;;;8.30;6.03;;;15.60;73.70;;;;;;5132658;27;20614;-82
2021/06/14 05:30:24;;;;;;;4.83;4.00;;;15.70;74.20;;;;;;5134128;27;20602;-83
2021/06/14 05:32:52;;;;;;;7.10;4.10;;;15.70;73.40;;;;;;5132248;27;20626;-82
2021/06/14 05:35:19;;;;;;;8.77;4.87;;;15.70;74.30;;;;;;5114082;27;20619;-82
2021/06/14 05:37:48;;;;;;;5.30;3.83;;;15.90;74.40;;;;;;5132271;27;20668;-82
2021/06/14 05:40:17;;;;;;;7.27;4.07;;;15.90;74.10;;;;;;5131033;27;20622;-82
2021/06/14 05:42:44;;;;;;;4.50;4.13;;;15.90;73.80;;;;;;5133730;27;20663;-83
2021/06/14 05:45:11;;;;;;;4.97;4.47;;;16.00;74.10;;;;;;5132156;27;20651;-83
2021/06/14 05:47:38;;;;;;;5.83;4.57;;;16.10;74.20;;;;;;5130340;27;20618;-83
2021/06/14 05:50:08;;;;;;;4.50;4.10;;;16.20;74.50;;;;;;5133184;27;21617;-84
2021/06/14 05:52:35;;;;;;;4.60;3.60;;;16.20;73.80;;;;;;5133960;27;20615;-84
2021/06/14 05:55:02;;;;;;;4.40;3.90;;;16.20;73.40;;;;;;5127576;27;20655;-84
2021/06/14 05:57:29;;;;;;;6.93;4.87;;;16.30;72.10;;;;;;5133915;27;20947;-83
2021/06/14 05:59:56;;;;;;;7.13;4.00;;;16.30;72.90;;;;;;5133464;27;20606;-84
2021/06/14 06:02:23;;;;;;;4.83;4.37;;;16.40;73.90;;;;;;5135035;27;20611;-84
2021/06/14 06:04:50;;;;;;;5.37;3.50;;;16.40;72.00;;;;;;5135249;27;20629;-84
2021/06/14 06:07:19;;;;;;;5.13;3.83;;;16.50;71.40;;;;;;5123906;27;20663;-84
2021/06/14 06:09:46;;;;;;;6.07;3.93;;;16.60;71.80;;;;;;5114504;28;20608;-83
2021/06/14 06:12:14;;;;;;;9.03;4.13;;;16.70;72.00;;;;;;5124273;27;20621;-84
2021/06/14 06:14:41;;;;;;;4.47;4.03;;;16.80;71.60;;;;;;5132293;27;20698;-83
2021/06/14 06:17:08;;;;;;;4.63;3.90;;;16.90;71.90;;;;;;5134378;27;20606;-84
2021/06/14 06:19:36;;;;;;;6.57;4.30;;;17.00;72.40;;;;;;5134521;27;20626;-83
2021/06/14 06:22:04;;;;;;;5.10;3.00;;;17.00;73.30;;;;;;5134981;27;20722;-83
2021/06/14 06:24:33;;;;;;;4.87;3.40;;;17.10;72.00;;;;;;5134381;27;20625;-83
2021/06/14 06:27:01;;;;;;;6.13;3.50;;;17.10;70.80;;;;;;5134502;27;21242;-84
2021/06/14 06:29:28;;;;;;;8.00;4.10;;;17.10;72.80;;;;;;5133456;27;20604;-84
2021/06/14 06:31:55;;;;;;;4.00;3.60;;;17.30;69.60;;;;;;5134450;27;20623;-83
2021/06/14 06:34:23;;;;;;;4.13;3.60;;;17.30;68.40;;;;;;5135537;27;20671;-84
2021/06/14 06:36:50;;;;;;;4.40;4.00;;;17.40;69.40;;;;;;5136290;27;20597;-84
2021/06/14 06:39:17;;;;;;;5.13;3.43;;;17.50;70.20;;;;;;5136265;27;20610;-84
2021/06/14 06:41:46;;;;;;;4.70;4.10;;;17.70;68.50;;;;;;5135862;27;21274;-84
2021/06/14 06:44:13;;;;;;;4.07;3.43;;;17.70;67.20;;;;;;5129012;27;20632;-84
2021/06/14 06:46:40;;;;;;;6.00;3.83;;;17.70;66.20;;;;;;5113683;28;20651;-84
2021/06/14 06:49:07;;;;;;;4.40;3.67;;;17.80;66.80;;;;;;5134099;27;20639;-83
2021/06/14 06:51:34;;;;;;;6.50;3.20;;;17.80;65.70;;;;;;5134647;27;20638;-85
2021/06/14 06:54:14;;;;;;;8.13;4.87;;;17.90;65.30;;;;;;5134680;27;20608;-85
2021/06/14 06:56:42;;;;;;;6.28;4.25;;;18.00;66.90;;;;;;5133274;27;20753;-84
2021/06/14 06:59:12;;;;;;;4.83;3.50;;;18.10;65.70;;;;;;5135866;27;20213;-85
2021/06/14 07:01:39;;;;;;;3.73;3.13;;;18.10;65.40;;;;;;5135928;27;20632;-83
2021/06/14 07:04:07;;;;;;;4.47;3.73;;;18.20;65.10;;;;;;5133555;27;20624;-83
2021/06/14 07:06:34;;;;;;;3.80;3.43;;;18.30;65.90;;;;;;5133035;27;20660;-83
2021/06/14 07:09:03;;;;;;;3.80;3.23;;;18.40;66.30;;;;;;5134204;27;20610;-83
2021/06/14 07:11:31;;;;;;;7.33;4.00;;;18.50;63.80;;;;;;5132675;27;20612;-85
2021/06/14 07:13:58;;;;;;;6.40;3.27;;;18.50;63.40;;;;;;5132987;27;20611;-83
2021/06/14 07:16:27;;;;;;;3.27;2.97;;;18.50;64.30;;;;;;5133676;27;20627;-83
2021/06/14 07:18:54;;;;;;;3.83;3.50;;;18.60;63.20;;;;;;5133473;27;20619;-84
2021/06/14 07:21:22;;;;;;;3.97;3.57;;;18.80;63.00;;;;;;5132356;27;20638;-83
2021/06/14 07:23:50;;;;;;;3.57;3.27;;;18.80;63.40;;;;;;5132706;27;20612;-83
2021/06/14 07:26:17;;;;;;;4.13;3.70;;;18.90;63.00;;;;;;5131510;27;20658;-84
2021/06/14 07:28:44;;;;;;;4.43;3.93;;;19.10;62.50;;;;;;5131324;27;21173;-83
2021/06/14 07:31:11;;;;;;;4.03;3.63;;;19.10;63.70;;;;;;5129094;27;20618;-83
2021/06/14 07:33:40;;;;;;;4.20;3.40;;;19.30;62.90;;;;;;5131305;27;20625;-84
2021/06/14 07:36:09;;;;;;;4.20;3.40;;;19.40;62.90;;;;;;5129732;27;20716;-83
2021/06/14 07:38:37;;;;;;;4.20;3.50;;;19.50;62.40;;;;;;5129995;27;20619;-84
2021/06/14 07:41:06;;;;;;;5.53;3.90;;;19.50;60.90;;;;;;5132691;27;20610;-84
2021/06/14 07:43:34;;;;;;;10.63;4.33;;;19.60;60.60;;;;;;5129426;27;21190;-83
2021/06/14 07:46:01;;;;;;;11.40;3.70;;;19.70;59.30;;;;;;5143072;27;20653;-84
2021/06/14 07:48:29;;;;;;;3.83;3.50;;;19.80;59.20;;;;;;5139872;27;20675;-84
2021/06/14 07:50:58;;;;;;;4.87;3.90;;;19.70;60.90;;;;;;5140935;27;21048;-84
2021/06/14 07:53:25;;;;;;;4.80;3.83;;;19.90;59.80;;;;;;5139092;27;20615;-84
2021/06/14 07:55:53;;;;;;;4.00;3.40;;;20.00;59.80;;;;;;5140834;27;20613;-84
2021/06/14 07:58:21;;;;;;;4.90;3.83;;;20.10;60.70;;;;;;5143313;27;21061;-84
2021/06/14 08:00:47;;;;;;;6.20;3.83;;;20.10;58.60;;;;;;5139623;27;20988;-85
2021/06/14 08:03:14;;;;;;;4.53;3.40;;;20.30;58.90;;;;;;5141355;27;21006;-84
2021/06/14 08:05:42;;;;;;;4.20;3.90;;;20.40;58.70;;;;;;5141803;27;20645;-84
2021/06/14 08:08:12;;;;;;;4.37;3.67;;;20.50;58.10;;;;;;5140401;27;20618;-85
2021/06/14 08:10:39;;;;;;;3.07;2.77;;;20.70;58.70;;;;;;5142727;27;20654;-84
2021/06/14 08:13:06;;;;;;;3.97;3.67;;;20.70;59.80;;;;;;5145199;27;20715;-84
2021/06/14 08:15:35;;;;;;;4.73;3.50;;;20.90;58.90;;;;;;5142990;27;21240;-84
2021/06/14 08:18:13;;;;;;;3.93;3.47;;;20.90;58.30;;;;;;5144506;27;20633;-85
2021/06/14 08:20:49;;;;;;;3.50;3.20;;;21.00;58.00;;;;;;5137818;27;20738;-84
2021/06/14 08:26:02;;;;;;;6.07;4.20;;;21.20;57.90;;;;;;5141836;27;20625;-84
2021/06/14 08:28:29;;;;;;;5.33;3.90;;;21.30;56.30;;;;;;5140382;27;20615;-83
2021/06/14 08:30:56;;;;;;;7.10;4.70;;;21.20;57.30;;;;;;5143938;27;21197;-84
2021/06/14 08:33:23;;;;;;;4.53;3.50;;;21.20;59.00;;;;;;5142243;27;21370;-85
2021/06/14 08:35:51;;;;;;;4.30;3.80;;;21.40;58.90;;;;;;5134009;27;20974;-84
2021/06/14 08:38:20;;;;;;;3.73;3.30;;;21.50;57.00;;;;;;5137931;27;20641;-84
2021/06/14 08:40:47;;;;;;;7.97;3.63;;;21.40;58.40;;;;;;5138398;27;20976;-85
2021/06/14 08:43:14;;;;;;;3.47;3.17;;;21.60;58.70;;;;;;5142022;27;20607;-85
2021/06/14 08:45:43;;;;;;;4.60;4.20;;;21.70;57.90;;;;;;5142701;27;21237;-84
2021/06/14 08:48:12;;;;;;;2.80;2.60;;;21.80;56.30;;;;;;5141997;27;20663;-84
2021/06/14 08:50:40;;;;;;;3.43;3.10;;;21.90;55.00;;;;;;5142001;27;20611;-84
2021/06/14 08:53:07;;;;;;;2.80;2.50;;;21.90;55.70;;;;;;5147328;27;20610;-84
2021/06/14 08:55:36;;;;;;;3.80;3.50;;;22.00;54.20;;;;;;5149021;27;20623;-86
2021/06/14 08:58:04;;;;;;;3.73;3.40;;;22.20;55.50;;;;;;5143660;27;20647;-85
2021/06/14 09:00:33;;;;;;;3.73;3.43;;;22.30;55.30;;;;;;5143299;27;20611;-85
2021/06/14 09:03:00;;;;;;;5.67;3.73;;;22.30;55.60;;;;;;5129657;27;21563;-85
2021/06/14 09:05:29;;;;;;;4.53;3.27;;;22.40;54.80;;;;;;5114690;28;20744;-84
2021/06/14 09:07:57;;;;;;;4.03;3.40;;;22.50;55.40;;;;;;5119331;27;20625;-84
2021/06/14 09:10:27;;;;;;;3.30;3.10;;;22.50;55.30;;;;;;5133551;27;20624;-85
2021/06/14 09:13:08;;;;;;;3.87;3.50;;;22.60;54.00;;;;;;5135060;27;21089;-86
2021/06/14 09:15:35;;;;;;;6.60;3.60;;;22.80;54.70;;;;;;5132256;27;20620;-85
2021/06/14 09:18:03;;;;;;;3.57;3.27;;;22.80;55.10;;;;;;5129735;27;20665;-84
2021/06/14 09:20:29;;;;;;;3.53;2.93;;;22.90;55.10;;;;;;5134477;27;20625;-85
2021/06/14 09:23:07;;;;;;;9.27;4.40;;;23.00;54.60;;;;;;5124998;27;21113;-86
2021/06/14 09:25:34;;;;;;;6.07;3.80;;;23.00;52.80;;;;;;5123463;27;20629;-85
2021/06/14 09:28:10;;;;;;;4.70;3.57;;;23.20;53.90;;;;;;5126285;27;20666;-86
2021/06/14 09:30:37;;;;;;;4.13;3.33;;;23.40;53.90;;;;;;5125060;27;20717;-85
2021/06/14 09:33:06;;;;;;;3.33;3.07;;;23.40;53.70;;;;;;5124373;27;20643;-86
2021/06/14 09:35:35;;;;;;;3.33;3.03;;;23.50;53.50;;;;;;5136312;27;20684;-86
2021/06/14 09:38:05;;;;;;;3.80;3.40;;;23.60;52.10;;;;;;5142012;27;20655;-85
2021/06/14 09:40:36;;;;;;;7.53;3.60;;;23.70;51.40;;;;;;5143581;27;20646;-86
2021/06/14 09:43:06;;;;;;;4.17;3.33;;;23.70;52.50;;;;;;5146108;27;20672;-84
2021/06/14 09:45:33;;;;;;;3.00;2.70;;;23.80;51.80;;;;;;5146294;27;20603;-86
2021/06/14 09:48:01;;;;;;;3.47;3.20;;;24.00;51.20;;;;;;5137947;27;20610;-86
2021/06/14 09:50:32;;;;;;;3.53;3.23;;;24.00;51.40;;;;;;5136577;27;20619;-84
2021/06/14 09:53:10;;;;;;;3.80;3.50;;;24.00;51.80;;;;;;5131306;27;20632;-84
2021/06/14 09:55:38;;;;;;;3.50;3.17;;;23.70;51.60;;;;;;5124600;27;20624;-86
2021/06/14 09:58:18;;;;;;;4.50;3.10;;;23.90;51.40;;;;;;5115620;28;20644;-84
2021/06/14 10:01:03;;;;;;;2.77;2.40;;;24.00;51.30;;;;;;5120609;27;20630;-86
2021/06/14 10:03:43;;;;;;;5.73;3.20;;;24.20;50.60;;;;;;5115782;28;20610;-85
2021/06/14 10:06:10;;;;;;;3.87;3.00;;;24.40;52.00;;;;;;5115023;28;20621;-85
2021/06/14 10:08:38;;;;;;;3.33;3.03;;;24.50;51.30;;;;;;5109371;28;20650;-86
2021/06/14 10:11:09;;;;;;;3.47;3.17;;;24.60;50.40;;;;;;5114159;28;20809;-86
2021/06/14 10:13:39;;;;;;;5.80;3.50;;;24.70;50.40;;;;;;5113982;28;20683;-87
2021/06/14 10:16:08;;;;;;;3.87;3.13;;;24.80;50.60;;;;;;5116027;28;20959;-85
2021/06/14 10:18:39;;;;;;;3.00;2.80;;;25.00;49.20;;;;;;5120812;27;20655;-85
2021/06/14 10:21:09;;;;;;;2.63;2.43;;;25.10;49.40;;;;;;5136146;27;21296;-85
2021/06/14 10:23:36;;;;;;;3.47;3.10;;;25.10;48.80;;;;;;5135204;27;20618;-87
2021/06/14 10:26:04;;;;;;;2.93;2.73;;;25.10;47.20;;;;;;5126630;27;20608;-86
2021/06/14 10:28:33;;;;;;;3.43;2.83;;;25.20;47.30;;;;;;5115441;28;20620;-85
2021/06/14 10:31:01;;;;;;;3.80;3.50;;;25.40;49.40;;;;;;5140123;27;20595;-87
2021/06/14 10:33:29;;;;;;;5.10;3.23;;;25.50;48.60;;;;;;5148498;27;20598;-88
2021/06/14 10:35:57;;;;;;;3.27;2.63;;;25.50;46.30;;;;;;5155977;27;20617;-88
2021/06/14 10:38:25;;;;;;;5.17;2.77;;;25.70;45.80;;;;;;5153424;27;20748;-87
2021/06/14 10:40:53;;;;;;;2.70;2.50;;;25.80;47.20;;;;;;5156270;27;21213;-87
2021/06/14 10:43:28;;;;;;;3.20;2.90;;;25.80;45.70;;;;;;5155214;27;20609;-86
2021/06/14 10:45:57;;;;;;;3.33;3.03;;;25.80;46.40;;;;;;5152834;27;20610;-86
2021/06/14 10:48:33;;;;;;;2.93;2.47;;;26.00;47.40;;;;;;5135987;27;20606;-87
2021/06/14 10:51:02;;;;;;;3.67;3.30;;;26.10;46.20;;;;;;5136652;27;20611;-87
2021/06/14 10:53:31;;;;;;;2.90;2.70;;;26.30;45.00;;;;;;5116159;27;20623;-87
2021/06/14 10:56:01;;;;;;;3.40;3.10;;;26.30;44.80;;;;;;5114787;28;20611;-89
2021/06/14 10:58:31;;;;;;;2.83;2.60;;;26.40;44.80;;;;;;5114874;28;20643;-88
2021/06/14 11:01:04;;;;;;;2.83;2.63;;;26.40;42.90;;;;;;5117468;27;20642;-88
2021/06/14 11:03:40;;;;;;;2.83;2.60;;;26.60;43.10;;;;;;5115154;28;20615;-87
2021/06/14 11:06:23;;;;;;;4.33;2.83;;;26.90;44.90;;;;;;5115021;28;20622;-86
2021/06/14 11:08:57;;;;;;;3.80;2.50;;;27.10;42.60;;;;;;5113459;28;20630;-87
2021/06/14 11:11:25;;;;;;;4.40;2.50;;;26.90;43.10;;;;;;5114758;28;20614;-87
2021/06/14 11:13:53;;;;;;;6.13;2.50;;;27.20;45.70;;;;;;5114746;28;20611;-87
2021/06/14 11:16:21;;;;;;;3.43;2.30;;;27.50;45.40;;;;;;5114732;28;20635;-87
2021/06/14 11:18:53;;;;;;;3.00;2.67;;;27.90;42.70;;;;;;5115505;28;21050;-89
2021/06/14 11:21:23;;;;;;;2.90;2.63;;;28.20;42.70;;;;;;5132116;27;20681;-87
2021/06/14 11:23:53;;;;;;;2.90;2.70;;;28.20;42.50;;;;;;5135061;27;20630;-87
2021/06/14 11:26:28;;;;;;;2.57;2.37;;;28.30;42.30;;;;;;5134887;27;20603;-87
2021/06/14 11:28:55;;;;;;;2.73;2.53;;;28.50;42.10;;;;;;5135130;27;20705;-89
2021/06/14 11:31:24;;;;;;;2.90;2.53;;;28.90;41.00;;;;;;5135054;27;20614;-88
2021/06/14 11:33:58;;;;;;;5.83;2.87;;;29.20;40.50;;;;;;5134851;27;20647;-88
2021/06/14 11:36:27;;;;;;;5.03;2.97;;;29.40;40.90;;;;;;5135724;27;20615;-88
2021/06/14 11:38:58;;;;;;;2.67;2.47;;;29.40;39.80;;;;;;5135441;27;21045;-86
2021/06/14 11:41:26;;;;;;;2.87;2.40;;;29.50;40.50;;;;;;5135504;27;20610;-88
2021/06/14 11:44:21;;;;;;;3.30;3.00;;;29.80;40.80;;;;;;5135425;27;20611;-89
2021/06/14 11:46:49;;;;;;;6.00;3.00;;;30.00;40.10;;;;;;5132689;27;21171;-90
2021/06/14 11:49:18;;;;;;;2.60;2.40;;;30.20;40.40;;;;;;5134869;27;20661;-91
2021/06/14 11:51:45;;;;;;;2.80;2.60;;;30.80;38.00;;;;;;5135610;27;20965;-88
2021/06/14 11:54:16;;;;;;;4.33;2.13;;;30.90;37.90;;;;;;5135042;27;20625;-90
2021/06/14 11:56:43;;;;;;;3.17;2.90;;;31.40;39.70;;;;;;5134978;27;20630;-88
2021/06/14 11:59:11;;;;;;;3.53;2.20;;;31.70;39.30;;;;;;5134892;27;21081;-91
2021/06/14 12:01:42;;;;;;;2.93;2.70;;;32.80;37.30;;;;;;5135154;27;21320;-91
2021/06/14 12:04:10;;;;;;;3.03;2.60;;;32.90;37.50;;;;;;5136258;28;20746;-93
2021/06/14 12:06:47;;;;;;;2.77;2.57;;;33.40;36.00;;;;;;5132110;28;21041;-90
2021/06/14 12:09:17;;;;;;;2.57;2.33;;;33.80;35.00;;;;;;5130917;28;20957;-90
2021/06/14 12:19:11;;;;;;;2.40;1.93;;;35.50;34.50;;;;;;5052685;28;20676;-90
2021/06/14 12:41:02;;;;;;;2.95;2.63;;;37.50;31.00;;;;;;4890611;29;20580;-91
2021/06/14 12:43:34;;;;;;;2.40;2.20;;;37.80;30.50;;;;;;4997175;28;20274;-89
2021/06/14 12:46:04;;;;;;;2.13;2.03;;;38.30;29.90;;;;;;5014562;28;20192;-91
2021/06/14 12:48:34;;;;;;;2.25;2.15;;;38.10;30.50;;;;;;5066531;28;20301;-90
2021/06/14 12:51:04;;;;;;;4.35;2.65;;;37.60;30.70;;;;;;5115381;27;20224;-89
2021/06/14 12:53:31;;;;;;;2.30;2.20;;;36.70;31.20;;;;;;5135943;27;20200;-90
2021/06/14 12:56:36;;;;;;;3.55;2.22;;;36.60;32.90;;;;;;5142965;27;20211;-92
2021/06/14 13:03:30;;;;;;;2.35;2.25;;;38.00;31.40;;;;;;5065025;27;20220;-93
2021/06/14 13:09:30;;;;;;;3.72;2.08;;;39.10;28.80;;;;;;5093394;28;20241;-91
2021/06/14 13:12:01;;;;;;;2.20;2.00;;;39.10;29.90;;;;;;5137101;27;20188;-91
2021/06/14 13:14:29;;;;;;;3.08;2.50;;;39.20;29.30;;;;;;5137982;27;20691;-90
2021/06/14 13:17:44;;;;;;;4.63;2.17;;;38.60;29.40;;;;;;5138688;27;20220;-96
2021/06/14 13:30:28;;;;;;;4.93;2.38;;;39.30;28.50;;;;;;4995409;28;20197;-92
2021/06/14 13:40:09;;;;;;;2.33;2.20;;;39.30;28.70;;;;;;5020264;28;20212;-93
2021/06/14 13:42:48;;;;;;;2.33;2.13;;;39.40;28.50;;;;;;5110213;27;20212;-92
2021/06/14 13:45:48;;;;;;;1.90;1.80;;;39.00;27.90;;;;;;5137503;27;20207;-92
2021/06/14 13:54:40;;;;;;;1.80;1.67;;;39.90;27.80;;;;;;4981115;28;21657;-91
2021/06/14 13:57:14;;;;;;;1.83;1.70;;;39.40;27.80;;;;;;5030547;28;20215;-91
2021/06/14 13:59:45;;;;;;;4.75;1.83;;;39.20;27.60;;;;;;5071240;28;20232;-92
2021/06/14 14:03:10;;;;;;;1.60;1.50;;;38.80;27.70;;;;;;5113856;28;20197;-95